sensor_id;sensor_type;location;lat;lon;timestamp;P1;durP1;ratioP1;P2;durP2;ratioP2
60718;SDS011;46567;51.660;5.824;2023-09-19T00:03:20;12.2;;;2.5;;
60718;SDS011;46567;51.660;5.824;2023-09-19T00:08:20;10.7;;;2.2;;
60718;SDS011;46567;51.660;5.824;2023-09-19T00:13:20;12.1;;;2.4;;
60718;SDS011;46567;51.660;5.824;2023-09-19T00:18:20;10.6;;;2.5;;
60718;SDS011;46567;51.660;5.824;2023-09-19T00:23:20;10.1;;;2.7;;
60718;SDS011;46567;51.660;5.824;2023-09-19T00:28:20;8.1;;;2.6;;
60718;SDS011;46567;51.660;5.824;2023-09-19T00:33:20;10.0;;;1.9;;
60718;SDS011;46567;51.660;5.824;2023-09-19T00:38:20;10.3;;;2.4;;
60718;SDS011;46567;51.660;5.824;2023-09-19T00:43:20;15.4;;;2.5;;
60718;SDS011;46567;51.660;5.824;2023-09-19T00:48:20;10.6;;;1.9;;
60718;SDS011;46567;51.660;5.824;2023-09-19T00:53:23;8.0;;;2.1;;
60718;SDS011;46567;51.660;5.824;2023-09-19T00:58:20;13.1;;;2.2;;
60718;SDS011;46567;51.660;5.824;2023-09-19T01:08:20;12.8;;;2.5;;
60718;SDS011;46567;51.660;5.824;2023-09-19T01:14:31;15.7;;;2.3;;
60718;SDS011;46567;51.660;5.824;2023-09-19T01:22:48;16.3;;;3.1;;
60718;SDS011;46567;51.660;5.824;2023-09-19T01:29:51;10.1;;;2.6;;
60718;SDS011;46567;51.660;5.824;2023-09-19T01:31:38;6.8;;;1.6;;
60718;SDS011;46567;51.660;5.824;2023-09-19T01:33:20;11.2;;;2.0;;
60718;SDS011;46567;51.660;5.824;2023-09-19T01:38:20;7.7;;;2.0;;
60718;SDS011;46567;51.660;5.824;2023-09-19T01:43:50;6.1;;;2.1;;
60718;SDS011;46567;51.660;5.824;2023-09-19T01:49:18;8.2;;;2.4;;
60718;SDS011;46567;51.660;5.824;2023-09-19T01:54:09;7.7;;;2.3;;
60718;SDS011;46567;51.660;5.824;2023-09-19T01:58:42;7.3;;;2.2;;
60718;SDS011;46567;51.660;5.824;2023-09-19T02:03:20;7.4;;;2.1;;
60718;SDS011;46567;51.660;5.824;2023-09-19T02:08:20;7.3;;;1.7;;
60718;SDS011;46567;51.660;5.824;2023-09-19T02:13:22;10.9;;;2.0;;
60718;SDS011;46567;51.660;5.824;2023-09-19T02:18:20;7.8;;;2.1;;
60718;SDS011;46567;51.660;5.824;2023-09-19T02:23:20;9.1;;;2.1;;
60718;SDS011;46567;51.660;5.824;2023-09-19T02:28:20;9.4;;;2.2;;
60718;SDS011;46567;51.660;5.824;2023-09-19T02:33:20;11.7;;;2.1;;
60718;SDS011;46567;51.660;5.824;2023-09-19T02:38:20;10.1;;;2.3;;
60718;SDS011;46567;51.660;5.824;2023-09-19T02:43:20;9.5;;;2.4;;
60718;SDS011;46567;51.660;5.824;2023-09-19T02:48:20;7.7;;;2.2;;
60718;SDS011;46567;51.660;5.824;2023-09-19T02:53:20;5.9;;;1.8;;
60718;SDS011;46567;51.660;5.824;2023-09-19T02:58:20;17.5;;;2.1;;
60718;SDS011;46567;51.660;5.824;2023-09-19T03:03:20;14.6;;;2.6;;
60718;SDS011;46567;51.660;5.824;2023-09-19T03:08:20;8.0;;;1.9;;
60718;SDS011;46567;51.660;5.824;2023-09-19T03:13:20;7.1;;;2.0;;
60718;SDS011;46567;51.660;5.824;2023-09-19T03:18:20;10.3;;;2.2;;
60718;SDS011;46567;51.660;5.824;2023-09-19T03:23:20;10.5;;;2.2;;
60718;SDS011;46567;51.660;5.824;2023-09-19T03:28:20;8.2;;;2.4;;
60718;SDS011;46567;51.660;5.824;2023-09-19T03:33:20;7.9;;;1.9;;
60718;SDS011;46567;51.660;5.824;2023-09-19T03:38:20;10.3;;;2.4;;
60718;SDS011;46567;51.660;5.824;2023-09-19T03:43:20;9.5;;;2.0;;
60718;SDS011;46567;51.660;5.824;2023-09-19T03:48:20;10.3;;;1.9;;
60718;SDS011;46567;51.660;5.824;2023-09-19T03:53:20;7.6;;;2.1;;
60718;SDS011;46567;51.660;5.824;2023-09-19T03:58:20;8.4;;;1.8;;
60718;SDS011;46567;51.660;5.824;2023-09-19T04:03:20;9.5;;;2.6;;
60718;SDS011;46567;51.660;5.824;2023-09-19T04:08:20;11.2;;;1.9;;
60718;SDS011;46567;51.660;5.824;2023-09-19T04:13:20;10.0;;;2.1;;
60718;SDS011;46567;51.660;5.824;2023-09-19T04:18:20;6.6;;;1.9;;
60718;SDS011;46567;51.660;5.824;2023-09-19T04:23:20;13.1;;;2.2;;
60718;SDS011;46567;51.660;5.824;2023-09-19T04:28:20;8.6;;;2.0;;
60718;SDS011;46567;51.660;5.824;2023-09-19T04:33:20;8.8;;;1.8;;
60718;SDS011;46567;51.660;5.824;2023-09-19T04:38:20;12.1;;;2.6;;
60718;SDS011;46567;51.660;5.824;2023-09-19T04:43:20;8.3;;;2.2;;
60718;SDS011;46567;51.660;5.824;2023-09-19T04:48:20;8.9;;;2.4;;
60718;SDS011;46567;51.660;5.824;2023-09-19T04:53:20;7.5;;;2.1;;
60718;SDS011;46567;51.660;5.824;2023-09-19T04:58:20;10.3;;;1.9;;
60718;SDS011;46567;51.660;5.824;2023-09-19T05:03:20;8.2;;;2.1;;
60718;SDS011;46567;51.660;5.824;2023-09-19T05:08:20;10.5;;;1.9;;
60718;SDS011;46567;51.660;5.824;2023-09-19T05:13:20;8.4;;;1.9;;
60718;SDS011;46567;51.660;5.824;2023-09-19T05:18:20;12.4;;;2.9;;
60718;SDS011;46567;51.660;5.824;2023-09-19T05:23:20;8.0;;;2.0;;
60718;SDS011;46567;51.660;5.824;2023-09-19T05:28:20;8.2;;;2.0;;
60718;SDS011;46567;51.660;5.824;2023-09-19T05:33:20;14.3;;;2.4;;
60718;SDS011;46567;51.660;5.824;2023-09-19T05:38:20;7.9;;;2.1;;
60718;SDS011;46567;51.660;5.824;2023-09-19T05:43:20;8.2;;;2.0;;
60718;SDS011;46567;51.660;5.824;2023-09-19T05:48:20;7.0;;;1.8;;
60718;SDS011;46567;51.660;5.824;2023-09-19T05:53:20;10.0;;;1.8;;
60718;SDS011;46567;51.660;5.824;2023-09-19T05:58:20;9.5;;;2.3;;
60718;SDS011;46567;51.660;5.824;2023-09-19T06:03:20;8.3;;;1.8;;
60718;SDS011;46567;51.660;5.824;2023-09-19T06:08:20;13.1;;;2.4;;
60718;SDS011;46567;51.660;5.824;2023-09-19T06:13:20;9.4;;;2.0;;
60718;SDS011;46567;51.660;5.824;2023-09-19T06:18:20;8.2;;;1.7;;
60718;SDS011;46567;51.660;5.824;2023-09-19T06:23:20;7.6;;;1.7;;
60718;SDS011;46567;51.660;5.824;2023-09-19T06:28:20;7.0;;;1.7;;
60718;SDS011;46567;51.660;5.824;2023-09-19T06:33:20;13.2;;;1.9;;
60718;SDS011;46567;51.660;5.824;2023-09-19T06:43:20;9.4;;;2.1;;
60718;SDS011;46567;51.660;5.824;2023-09-19T06:48:20;7.7;;;1.9;;
60718;SDS011;46567;51.660;5.824;2023-09-19T06:53:20;9.8;;;1.8;;
60718;SDS011;46567;51.660;5.824;2023-09-19T06:58:20;8.5;;;2.1;;
60718;SDS011;46567;51.660;5.824;2023-09-19T07:03:20;8.9;;;2.1;;
60718;SDS011;46567;51.660;5.824;2023-09-19T07:08:20;12.4;;;2.0;;
60718;SDS011;46567;51.660;5.824;2023-09-19T07:13:20;7.4;;;2.0;;
60718;SDS011;46567;51.660;5.824;2023-09-19T07:18:20;11.8;;;3.0;;
60718;SDS011;46567;51.660;5.824;2023-09-19T07:23:20;8.3;;;2.2;;
60718;SDS011;46567;51.660;5.824;2023-09-19T07:28:20;12.8;;;2.4;;
60718;SDS011;46567;51.660;5.824;2023-09-19T07:33:20;9.9;;;2.1;;
60718;SDS011;46567;51.660;5.824;2023-09-19T07:38:20;10.8;;;2.1;;
60718;SDS011;46567;51.660;5.824;2023-09-19T07:43:20;13.3;;;2.3;;
60718;SDS011;46567;51.660;5.824;2023-09-19T07:48:20;14.3;;;2.4;;
60718;SDS011;46567;51.660;5.824;2023-09-19T07:53:20;9.5;;;2.2;;
60718;SDS011;46567;51.660;5.824;2023-09-19T07:58:20;13.0;;;2.8;;
60718;SDS011;46567;51.660;5.824;2023-09-19T08:03:20;13.5;;;2.1;;
60718;SDS011;46567;51.660;5.824;2023-09-19T08:08:20;10.6;;;2.2;;
60718;SDS011;46567;51.660;5.824;2023-09-19T08:13:20;9.5;;;2.2;;
60718;SDS011;46567;51.660;5.824;2023-09-19T08:18:20;9.2;;;1.9;;
60718;SDS011;46567;51.660;5.824;2023-09-19T08:23:20;13.3;;;2.4;;
60718;SDS011;46567;51.660;5.824;2023-09-19T08:28:20;9.0;;;2.2;;
60718;SDS011;46567;51.660;5.824;2023-09-19T08:33:20;10.5;;;2.4;;
60718;SDS011;46567;51.660;5.824;2023-09-19T08:38:20;9.9;;;2.5;;
60718;SDS011;46567;51.660;5.824;2023-09-19T08:43:21;8.9;;;2.3;;
60718;SDS011;46567;51.660;5.824;2023-09-19T08:48:50;10.4;;;2.4;;
60718;SDS011;46567;51.660;5.824;2023-09-19T08:53:42;8.4;;;2.1;;
60718;SDS011;46567;51.660;5.824;2023-09-19T08:58:21;8.4;;;2.4;;
60718;SDS011;46567;51.660;5.824;2023-09-19T09:03:20;8.8;;;2.2;;
60718;SDS011;46567;51.660;5.824;2023-09-19T09:08:20;7.5;;;1.8;;
60718;SDS011;46567;51.660;5.824;2023-09-19T09:13:20;11.6;;;2.2;;
60718;SDS011;46567;51.660;5.824;2023-09-19T09:18:20;12.8;;;2.1;;
60718;SDS011;46567;51.660;5.824;2023-09-19T09:23:20;11.0;;;2.3;;
60718;SDS011;46567;51.660;5.824;2023-09-19T09:28:23;10.0;;;2.2;;
60718;SDS011;46567;51.660;5.824;2023-09-19T09:33:20;7.0;;;1.7;;
60718;SDS011;46567;51.660;5.824;2023-09-19T09:38:21;11.1;;;2.5;;
60718;SDS011;46567;51.660;5.824;2023-09-19T09:43:28;7.5;;;1.8;;
60718;SDS011;46567;51.660;5.824;2023-09-19T09:48:25;8.4;;;2.1;;
60718;SDS011;46567;51.660;5.824;2023-09-19T09:53:21;10.8;;;2.2;;
60718;SDS011;46567;51.660;5.824;2023-09-19T09:58:20;9.8;;;2.3;;
60718;SDS011;46567;51.660;5.824;2023-09-19T10:03:20;9.8;;;2.0;;
60718;SDS011;46567;51.660;5.824;2023-09-19T10:08:20;13.6;;;2.4;;
60718;SDS011;46567;51.660;5.824;2023-09-19T10:13:20;10.0;;;2.0;;
60718;SDS011;46567;51.660;5.824;2023-09-19T10:18:24;6.3;;;1.7;;
60718;SDS011;46567;51.660;5.824;2023-09-19T10:23:21;9.3;;;2.0;;
60718;SDS011;46567;51.660;5.824;2023-09-19T10:28:21;9.1;;;2.2;;
60718;SDS011;46567;51.660;5.824;2023-09-19T10:33:22;8.6;;;2.0;;
60718;SDS011;46567;51.660;5.824;2023-09-19T10:38:23;7.0;;;2.6;;
60718;SDS011;46567;51.660;5.824;2023-09-19T10:43:20;7.0;;;2.1;;
60718;SDS011;46567;51.660;5.824;2023-09-19T10:48:20;6.8;;;2.0;;
60718;SDS011;46567;51.660;5.824;2023-09-19T10:53:20;12.8;;;2.1;;
60718;SDS011;46567;51.660;5.824;2023-09-19T10:58:28;11.1;;;1.8;;
60718;SDS011;46567;51.660;5.824;2023-09-19T11:03:23;6.1;;;1.9;;
60718;SDS011;46567;51.660;5.824;2023-09-19T11:08:20;7.1;;;1.7;;
60718;SDS011;46567;51.660;5.824;2023-09-19T11:13:30;6.2;;;1.9;;
60718;SDS011;46567;51.660;5.824;2023-09-19T11:18:51;9.7;;;1.7;;
60718;SDS011;46567;51.660;5.824;2023-09-19T11:23:28;8.6;;;2.0;;
60718;SDS011;46567;51.660;5.824;2023-09-19T11:28:35;7.5;;;2.0;;
60718;SDS011;46567;51.660;5.824;2023-09-19T11:33:32;8.5;;;1.9;;
60718;SDS011;46567;51.660;5.824;2023-09-19T11:38:57;7.3;;;1.6;;
60718;SDS011;46567;51.660;5.824;2023-09-19T11:43:29;6.7;;;1.9;;
60718;SDS011;46567;51.660;5.824;2023-09-19T11:48:20;6.6;;;1.5;;
60718;SDS011;46567;51.660;5.824;2023-09-19T11:53:21;6.0;;;1.5;;
60718;SDS011;46567;51.660;5.824;2023-09-19T11:58:20;5.3;;;1.5;;
60718;SDS011;46567;51.660;5.824;2023-09-19T12:03:21;3.6;;;1.3;;
60718;SDS011;46567;51.660;5.824;2023-09-19T12:08:20;5.3;;;1.5;;
60718;SDS011;46567;51.660;5.824;2023-09-19T12:13:20;6.8;;;1.6;;
60718;SDS011;46567;51.660;5.824;2023-09-19T12:18:26;5.5;;;1.3;;
60718;SDS011;46567;51.660;5.824;2023-09-19T12:23:20;6.5;;;1.9;;
60718;SDS011;46567;51.660;5.824;2023-09-19T12:33:20;4.6;;;1.3;;
60718;SDS011;46567;51.660;5.824;2023-09-19T12:38:22;3.0;;;1.2;;
60718;SDS011;46567;51.660;5.824;2023-09-19T12:43:20;3.1;;;0.9;;
60718;SDS011;46567;51.660;5.824;2023-09-19T12:48:24;3.8;;;1.0;;
60718;SDS011;46567;51.660;5.824;2023-09-19T12:53:25;2.6;;;1.0;;
60718;SDS011;46567;51.660;5.824;2023-09-19T12:58:20;4.4;;;1.1;;
60718;SDS011;46567;51.660;5.824;2023-09-19T13:03:27;7.3;;;0.9;;
60718;SDS011;46567;51.660;5.824;2023-09-19T13:08:20;2.3;;;0.9;;
60718;SDS011;46567;51.660;5.824;2023-09-19T13:13:24;3.1;;;1.0;;
60718;SDS011;46567;51.660;5.824;2023-09-19T13:18:20;3.4;;;0.9;;
60718;SDS011;46567;51.660;5.824;2023-09-19T13:23:26;5.5;;;1.1;;
60718;SDS011;46567;51.660;5.824;2023-09-19T13:28:20;3.6;;;0.9;;
60718;SDS011;46567;51.660;5.824;2023-09-19T13:33:20;3.3;;;0.9;;
60718;SDS011;46567;51.660;5.824;2023-09-19T13:38:20;3.9;;;1.1;;
60718;SDS011;46567;51.660;5.824;2023-09-19T13:43:20;3.6;;;1.1;;
60718;SDS011;46567;51.660;5.824;2023-09-19T13:48:20;3.9;;;1.1;;
60718;SDS011;46567;51.660;5.824;2023-09-19T13:53:20;5.0;;;0.8;;
60718;SDS011;46567;51.660;5.824;2023-09-19T13:58:20;4.2;;;1.0;;
60718;SDS011;46567;51.660;5.824;2023-09-19T14:03:20;3.7;;;1.1;;
60718;SDS011;46567;51.660;5.824;2023-09-19T14:08:20;3.4;;;1.1;;
60718;SDS011;46567;51.660;5.824;2023-09-19T14:13:20;2.8;;;0.9;;
60718;SDS011;46567;51.660;5.824;2023-09-19T14:18:20;4.6;;;0.8;;
60718;SDS011;46567;51.660;5.824;2023-09-19T14:23:20;6.0;;;1.0;;
60718;SDS011;46567;51.660;5.824;2023-09-19T14:28:20;3.9;;;0.9;;
60718;SDS011;46567;51.660;5.824;2023-09-19T14:33:20;2.9;;;1.0;;
60718;SDS011;46567;51.660;5.824;2023-09-19T14:38:20;8.1;;;1.0;;
60718;SDS011;46567;51.660;5.824;2023-09-19T14:43:20;5.9;;;0.8;;
60718;SDS011;46567;51.660;5.824;2023-09-19T14:48:20;2.3;;;0.9;;
60718;SDS011;46567;51.660;5.824;2023-09-19T14:53:20;3.2;;;0.9;;
60718;SDS011;46567;51.660;5.824;2023-09-19T14:58:20;5.6;;;0.8;;
60718;SDS011;46567;51.660;5.824;2023-09-19T15:03:20;3.1;;;1.0;;
60718;SDS011;46567;51.660;5.824;2023-09-19T15:08:20;1.9;;;0.8;;
60718;SDS011;46567;51.660;5.824;2023-09-19T15:13:20;3.5;;;1.0;;
60718;SDS011;46567;51.660;5.824;2023-09-19T15:18:20;6.4;;;1.4;;
60718;SDS011;46567;51.660;5.824;2023-09-19T15:23:20;5.0;;;0.9;;
60718;SDS011;46567;51.660;5.824;2023-09-19T15:28:20;3.8;;;0.9;;
60718;SDS011;46567;51.660;5.824;2023-09-19T15:33:20;4.0;;;1.3;;
60718;SDS011;46567;51.660;5.824;2023-09-19T15:38:20;3.0;;;1.0;;
60718;SDS011;46567;51.660;5.824;2023-09-19T15:43:20;2.3;;;0.9;;
60718;SDS011;46567;51.660;5.824;2023-09-19T15:48:20;2.9;;;1.0;;
60718;SDS011;46567;51.660;5.824;2023-09-19T15:53:20;4.3;;;1.3;;
60718;SDS011;46567;51.660;5.824;2023-09-19T15:58:20;3.3;;;0.9;;
60718;SDS011;46567;51.660;5.824;2023-09-19T16:03:20;4.9;;;1.0;;
60718;SDS011;46567;51.660;5.824;2023-09-19T16:08:20;3.0;;;1.1;;
60718;SDS011;46567;51.660;5.824;2023-09-19T16:13:20;3.6;;;1.0;;
60718;SDS011;46567;51.660;5.824;2023-09-19T16:18:20;6.5;;;1.3;;
60718;SDS011;46567;51.660;5.824;2023-09-19T16:23:20;4.3;;;1.4;;
60718;SDS011;46567;51.660;5.824;2023-09-19T16:28:20;3.9;;;1.0;;
60718;SDS011;46567;51.660;5.824;2023-09-19T16:33:20;2.4;;;0.9;;
60718;SDS011;46567;51.660;5.824;2023-09-19T16:38:20;4.8;;;1.5;;
60718;SDS011;46567;51.660;5.824;2023-09-19T16:43:21;5.0;;;1.0;;
60718;SDS011;46567;51.660;5.824;2023-09-19T16:48:20;4.1;;;1.1;;
60718;SDS011;46567;51.660;5.824;2023-09-19T16:53:20;3.4;;;1.1;;
60718;SDS011;46567;51.660;5.824;2023-09-19T16:58:20;4.4;;;1.3;;
60718;SDS011;46567;51.660;5.824;2023-09-19T17:03:20;4.6;;;1.8;;
60718;SDS011;46567;51.660;5.824;2023-09-19T17:08:20;4.8;;;1.2;;
60718;SDS011;46567;51.660;5.824;2023-09-19T17:13:20;6.1;;;1.4;;
60718;SDS011;46567;51.660;5.824;2023-09-19T17:18:20;6.4;;;1.4;;
60718;SDS011;46567;51.660;5.824;2023-09-19T17:23:20;5.2;;;1.5;;
60718;SDS011;46567;51.660;5.824;2023-09-19T17:28:20;4.3;;;1.4;;
60718;SDS011;46567;51.660;5.824;2023-09-19T17:33:20;3.5;;;1.3;;
60718;SDS011;46567;51.660;5.824;2023-09-19T17:38:20;11.7;;;1.3;;
60718;SDS011;46567;51.660;5.824;2023-09-19T17:43:20;4.6;;;1.7;;
60718;SDS011;46567;51.660;5.824;2023-09-19T17:48:20;3.4;;;1.6;;
60718;SDS011;46567;51.660;5.824;2023-09-19T17:53:20;4.4;;;1.5;;
60718;SDS011;46567;51.660;5.824;2023-09-19T17:58:20;3.9;;;1.4;;
60718;SDS011;46567;51.660;5.824;2023-09-19T18:03:20;4.8;;;1.6;;
60718;SDS011;46567;51.660;5.824;2023-09-19T18:08:20;4.2;;;1.5;;
60718;SDS011;46567;51.660;5.824;2023-09-19T18:13:20;3.8;;;1.3;;
60718;SDS011;46567;51.660;5.824;2023-09-19T18:18:20;4.5;;;1.3;;
60718;SDS011;46567;51.660;5.824;2023-09-19T18:23:20;6.2;;;1.6;;
60718;SDS011;46567;51.660;5.824;2023-09-19T18:28:20;9.7;;;1.6;;
60718;SDS011;46567;51.660;5.824;2023-09-19T18:33:20;8.0;;;1.8;;
60718;SDS011;46567;51.660;5.824;2023-09-19T18:38:20;5.5;;;1.4;;
60718;SDS011;46567;51.660;5.824;2023-09-19T18:43:20;6.0;;;1.7;;
60718;SDS011;46567;51.660;5.824;2023-09-19T18:48:20;4.8;;;1.3;;
60718;SDS011;46567;51.660;5.824;2023-09-19T18:53:20;3.6;;;1.6;;
60718;SDS011;46567;51.660;5.824;2023-09-19T18:58:20;5.4;;;1.4;;
60718;SDS011;46567;51.660;5.824;2023-09-19T19:03:20;2.3;;;1.1;;
60718;SDS011;46567;51.660;5.824;2023-09-19T19:08:20;2.9;;;1.3;;
60718;SDS011;46567;51.660;5.824;2023-09-19T19:13:20;4.4;;;1.6;;
60718;SDS011;46567;51.660;5.824;2023-09-19T19:18:20;3.6;;;1.2;;
60718;SDS011;46567;51.660;5.824;2023-09-19T19:23:20;4.4;;;1.2;;
60718;SDS011;46567;51.660;5.824;2023-09-19T19:28:20;4.5;;;1.5;;
60718;SDS011;46567;51.660;5.824;2023-09-19T19:33:20;3.4;;;1.6;;
60718;SDS011;46567;51.660;5.824;2023-09-19T19:38:20;5.1;;;1.6;;
60718;SDS011;46567;51.660;5.824;2023-09-19T19:43:20;5.4;;;1.5;;
60718;SDS011;46567;51.660;5.824;2023-09-19T19:48:20;5.3;;;1.3;;
60718;SDS011;46567;51.660;5.824;2023-09-19T19:53:20;4.4;;;1.5;;
60718;SDS011;46567;51.660;5.824;2023-09-19T19:58:20;4.4;;;1.4;;
60718;SDS011;46567;51.660;5.824;2023-09-19T20:03:20;5.8;;;1.8;;
60718;SDS011;46567;51.660;5.824;2023-09-19T20:08:20;4.9;;;1.6;;
60718;SDS011;46567;51.660;5.824;2023-09-19T20:13:20;7.2;;;1.7;;
60718;SDS011;46567;51.660;5.824;2023-09-19T20:18:20;6.0;;;1.3;;
60718;SDS011;46567;51.660;5.824;2023-09-19T20:23:20;5.6;;;1.7;;
60718;SDS011;46567;51.660;5.824;2023-09-19T20:28:20;5.5;;;1.5;;
60718;SDS011;46567;51.660;5.824;2023-09-19T20:33:20;4.7;;;1.5;;
60718;SDS011;46567;51.660;5.824;2023-09-19T20:38:20;5.2;;;1.5;;
60718;SDS011;46567;51.660;5.824;2023-09-19T20:43:20;4.3;;;1.3;;
60718;SDS011;46567;51.660;5.824;2023-09-19T20:48:20;9.1;;;1.7;;
60718;SDS011;46567;51.660;5.824;2023-09-19T20:53:20;4.0;;;1.4;;
60718;SDS011;46567;51.660;5.824;2023-09-19T20:58:20;4.6;;;1.7;;
60718;SDS011;46567;51.660;5.824;2023-09-19T21:03:20;4.9;;;1.4;;
60718;SDS011;46567;51.660;5.824;2023-09-19T21:08:20;3.0;;;1.3;;
60718;SDS011;46567;51.660;5.824;2023-09-19T21:13:20;4.8;;;1.6;;
60718;SDS011;46567;51.660;5.824;2023-09-19T21:18:20;6.1;;;1.7;;
60718;SDS011;46567;51.660;5.824;2023-09-19T21:23:20;8.3;;;1.6;;
60718;SDS011;46567;51.660;5.824;2023-09-19T21:28:20;5.6;;;2.0;;
60718;SDS011;46567;51.660;5.824;2023-09-19T21:33:20;5.4;;;2.2;;
60718;SDS011;46567;51.660;5.824;2023-09-19T21:38:20;6.0;;;1.7;;
60718;SDS011;46567;51.660;5.824;2023-09-19T21:43:20;4.9;;;1.6;;
60718;SDS011;46567;51.660;5.824;2023-09-19T21:48:20;4.2;;;1.5;;
60718;SDS011;46567;51.660;5.824;2023-09-19T21:53:20;4.8;;;1.7;;
60718;SDS011;46567;51.660;5.824;2023-09-19T21:58:20;6.0;;;2.1;;
60718;SDS011;46567;51.660;5.824;2023-09-19T22:03:20;6.5;;;2.0;;
60718;SDS011;46567;51.660;5.824;2023-09-19T22:08:20;6.1;;;1.7;;
60718;SDS011;46567;51.660;5.824;2023-09-19T22:13:20;7.8;;;1.7;;
60718;SDS011;46567;51.660;5.824;2023-09-19T22:18:20;6.6;;;1.7;;
60718;SDS011;46567;51.660;5.824;2023-09-19T22:23:20;3.7;;;1.6;;
60718;SDS011;46567;51.660;5.824;2023-09-19T22:28:20;8.2;;;1.9;;
60718;SDS011;46567;51.660;5.824;2023-09-19T22:33:20;4.0;;;1.6;;
60718;SDS011;46567;51.660;5.824;2023-09-19T22:38:20;6.5;;;1.9;;
60718;SDS011;46567;51.660;5.824;2023-09-19T22:43:20;5.1;;;1.8;;
60718;SDS011;46567;51.660;5.824;2023-09-19T22:48:20;5.9;;;2.0;;
60718;SDS011;46567;51.660;5.824;2023-09-19T22:53:20;8.4;;;2.1;;
60718;SDS011;46567;51.660;5.824;2023-09-19T22:58:20;6.0;;;2.1;;
60718;SDS011;46567;51.660;5.824;2023-09-19T23:03:20;5.0;;;1.8;;
60718;SDS011;46567;51.660;5.824;2023-09-19T23:08:20;6.5;;;1.9;;
60718;SDS011;46567;51.660;5.824;2023-09-19T23:13:20;4.5;;;1.9;;
60718;SDS011;46567;51.660;5.824;2023-09-19T23:18:20;8.3;;;1.9;;
60718;SDS011;46567;51.660;5.824;2023-09-19T23:23:20;8.3;;;2.0;;
60718;SDS011;46567;51.660;5.824;2023-09-19T23:28:20;4.9;;;1.7;;
60718;SDS011;46567;51.660;5.824;2023-09-19T23:33:20;4.5;;;1.7;;
60718;SDS011;46567;51.660;5.824;2023-09-19T23:38:20;5.5;;;1.7;;
60718;SDS011;46567;51.660;5.824;2023-09-19T23:43:20;6.0;;;1.9;;
60718;SDS011;46567;51.660;5.824;2023-09-19T23:48:20;5.5;;;1.7;;
60718;SDS011;46567;51.660;5.824;2023-09-19T23:53:20;5.9;;;2.2;;
60718;SDS011;46567;51.660;5.824;2023-09-19T23:58:20;6.3;;;1.7;;
